• Join FlightAware (Why Join?)
  • Login
  • US Flag 
01:09PM EDT


 

Airport Tracker/Info


-or-


 

Live Flight TrackerFlight Track Log ✈ LYM1725 ✈ 11-May-2013 ✈ KLAR - KRIW

Flight Track Log - Related Links

Times and Time Zones

All times are in EDT time to prevent confusion due to time zone crossing. See the LYM1725 flight status page for this flight to view local times or setup timezone preferences in your user account.

Time Position Orientation Groundspeed Altitude Reporting Facility
EDT Latitude Longitude Course Direction KTS MPH feet Rate Location/Type
10:05AM 41.3614 -105.7569 312° West 189 217 10,200  Level Denver Center
10:06AM 41.3961 -105.8053 314° West 190 219 11,500 1,200 Climbing Denver Center
10:07AM 41.4300 -105.8489 316° Northwest 184 212 12,700 1,320 Climbing Denver Center
10:08AM 41.4611 -105.8958 311° West 181 208 14,200 1,080 Climbing Denver Center
10:09AM 41.4964 -105.9567 308° West 183 211 14,900 780 Climbing Denver Center
10:10AM 41.5438 -106.0407 312° West  Level FlightAware Approximate
10:10AM 41.5275 -106.0069 310° West 183 211 15,800  Level Denver Center
10:11AM 41.5633 -106.0675 308° West 186 214 16,600 720 Climbing Denver Center
10:12AM 41.5964 -106.1158 312° West 183 211 17,300 660 Climbing Denver Center
10:13AM 41.6272 -106.1636 311° West 180 207 18,000 300 Climbing Denver Center
10:14AM 41.6656 -106.2261 309° West 191 220 18,000  Level Denver Center
10:15AM 41.7014 -106.2828 310° West 204 235 18,000  Level Denver Center
10:16AM 41.7481 -106.3528 312° West 221 254 18,000  Level Denver Center
10:17AM 41.7919 -106.4131 314° West 232 267 18,000  Level Denver Center
10:18AM 41.8317 -106.4758 310° West 232 267 18,000  Level Denver Center
10:19AM 41.8756 -106.5453 310° West 230 265 18,000  Level Denver Center
10:20AM 41.9167 -106.6081 311° West 232 267 18,000  Level Denver Center
10:21AM 41.9661 -106.6800 313° West 235 270 18,100  Climbing Denver Center
10:22AM 42.0050 -106.7450 309° West 233 268 18,100  Level Denver Center
10:23AM 42.0528 -106.8189 311° West 234 269 18,100 -60 Level Denver Center
10:24AM 42.0931 -106.8828 310° West 233 268 18,000  Descending Denver Center
10:25AM 42.1408 -106.9572 311° West 234 269 18,100  Climbing Denver Center
10:26AM 42.1797 -107.0239 308° West 236 272 18,000 -60 Descending Denver Center
10:27AM 42.2197 -107.0892 310° West 236 272 18,000  Level Denver Center
10:28AM 42.2678 -107.1614 312° West 233 268 18,000  Level Denver Center
10:29AM 42.3042 -107.2283 306° West 232 267 18,000  Level Denver Center
10:30AM 42.3514 -107.3025 311° West 233 268 18,000  Level Denver Center
10:31AM 42.3942 -107.3650 313° West 235 270 18,000  Level Denver Center
10:32AM 42.4267 -107.4197 309° West 237 273 18,000  Level Salt Lake Center
10:33AM 42.4694 -107.4800 314° West 235 270 18,100 -240 Climbing Salt Lake Center
10:34AM 42.5208 -107.5578 312° West 243 280 17,600 -540 Descending Salt Lake Center
10:35AM 42.5644 -107.6292 310° West 254 292 17,100 -840 Descending Salt Lake Center
10:36AM 42.6119 -107.7028 311° West 265 305 16,000 -1,140 Descending Salt Lake Center
10:37AM 42.6647 -107.7900 309° West 268 308 14,800 -960 Descending Salt Lake Center
10:38AM 42.7108 -107.8669 309° West 273 314 14,100 -780 Descending Salt Lake Center
10:39AM 42.7639 -107.9522 310° West 268 308 13,300 -900 Descending Salt Lake Center
10:40AM 42.8092 -108.0222 311° West 262 302 12,300 -1,080 Descending Salt Lake Center
10:41AM 42.8583 -108.0900 315° West 262 302 11,100 -1,200 Descending Salt Lake Center